EPSY

Szczytno-Szymany International Airport

Poland
METAR EPSY 171900Z VRB01KT 0800 R01/1600U FZFG NSC M07/M07 Q1020 R01/19//95
Observed Flight Rules
Dec-17 @ 19:00 UTC (8 hours ago) Instrument Flight Rules
Wind Visibility Clouds Conditions
Variable at 1 knots 805 meters
  • Clear skies
  • Freezing
  • Fog
Temperatures Readings
Current -7°C / 19°F
Dewpoint -7°C / 19°F
Humidity 100%
Altimeter 30.12" Hg
Pressure 1020 hPa
Elevation 141
METAR EPSY 171900Z VRB01KT 0800 R01/1600U FZFG NSC M07/M07 Q1020 R01/19//95
Observed Flight Rules
Dec-17 @ 19:00 UTC
(8 hours ago)
LIFR
Wind Visibility
Variable at 1 knots 805 meters
Clouds
  • Clear skies
Conditions
  • Freezing
  • Fog
Temperature Dewpoint
-7°C / 19°F -7°C / 19°F
Humidity Altimeter Pressure
100% 30.12" Hg 1020 hPa